Southbury, CT

10:18 AM EST on December 25, 2014 (GMT -0500)
KCTSOUTH13 | Change Station
CLOSE
Current Station
Personal Weather Station
Location: Astrium Satellite, Southbury, CT
Elevation: 121 ft
Nearby Weather Stations

Elev 121 ft 41.45 °N, 73.29 °W | Updated 2 seconds ago

Mostly Cloudy
Mostly Cloudy
49.5 °F
Feels Like 50 °F
N
2.0
Wind Variable Wind from SW
Gusts 14.0 mph

Today
High -- | Low -- °F
--% Chance of Precip.
Yesterday
High -- | Low -- °F
Precip. -- in
7:17 AM 4:28 PM
Waxing Crescent, 17% visible
Pressure 29.66 in
Visibility 10.0 miles
Clouds Few 1000 ft
Few 2900 ft
Windchill 50 °F
Dew Point 39 °F
Humidity 68%
Rainfall 0.07 in
Snow Depth Not available.
UV 1 out of 12
Pollen .10 out of 12
Air Quality Not available.
Flu Activity Not available.
METAR KOXC 251450Z COR 29008G16KT 250V320 10SM FEW010 FEW029 08/02 A2966

More Conditions Fewer Conditions

Pressure 29.66 in
Visibility 10.0 miles
Clouds Few 1000 ft
Few 2900 ft
Windchill 50 °F
Dew Point 39 °F
Humidity 68%
Rainfall 0.07 in
Snow Depth Not available.
UV 1 out of 12
Pollen .10 out of 12
Air Quality Not available.
Flu Activity Not available.
METAR KOXC 251450Z COR 29008G16KT 250V320 10SM FEW010 FEW029 08/02 A2966

More Conditions Fewer Conditions

10-Day Weather Forecast

Almanac

Astronomy

Dec. 25, 2014 Rise Set
Actual Time
Civil Twilight
Nautical Twilight
Astronomical Twilight
Moon
Length of Visible Light
Length of Day
Tomorrow will be .
, % of the Moon is Illuminated

Today's Extremes

State Highs State Lows

Community

WunderPhotos

Upload Photos

1,780,298 photos uploaded!

WunderBlogs® & News

Nearby

Air Quality

  Air Quality AQ Index Pollutant
Not available.

Snow Depth

Station Depth Elevation

Earthquake Activity

City Distance Mag. Time & Date
Minimum magnitude displayed is 2.5.

Coastal Water Temperatures

Place Temperature

Nearby Weather Stations